sensor_id;sensor_type;location;lat;lon;timestamp;P1;durP1;ratioP1;P2;durP2;ratioP2
16766;SDS011;8501;49.926;8.404;2022-08-26T00:00:40;12.23;;;7.25;;
16766;SDS011;8501;49.926;8.404;2022-08-26T00:03:09;9.68;;;6.60;;
16766;SDS011;8501;49.926;8.404;2022-08-26T00:05:36;9.07;;;7.00;;
16766;SDS011;8501;49.926;8.404;2022-08-26T00:08:03;8.55;;;6.88;;
16766;SDS011;8501;49.926;8.404;2022-08-26T00:10:29;9.88;;;6.72;;
16766;SDS011;8501;49.926;8.404;2022-08-26T00:12:54;12.13;;;7.20;;
16766;SDS011;8501;49.926;8.404;2022-08-26T00:15:20;10.18;;;6.53;;
16766;SDS011;8501;49.926;8.404;2022-08-26T00:17:47;10.38;;;6.95;;
16766;SDS011;8501;49.926;8.404;2022-08-26T00:20:16;10.18;;;6.63;;
16766;SDS011;8501;49.926;8.404;2022-08-26T00:22:44;9.25;;;7.00;;
16766;SDS011;8501;49.926;8.404;2022-08-26T00:25:10;9.35;;;6.70;;
16766;SDS011;8501;49.926;8.404;2022-08-26T00:27:37;9.68;;;6.97;;
16766;SDS011;8501;49.926;8.404;2022-08-26T00:30:06;9.65;;;6.68;;
16766;SDS011;8501;49.926;8.404;2022-08-26T00:32:34;9.65;;;6.78;;
16766;SDS011;8501;49.926;8.404;2022-08-26T00:35:09;8.38;;;6.32;;
16766;SDS011;8501;49.926;8.404;2022-08-26T00:37:37;7.53;;;6.40;;
16766;SDS011;8501;49.926;8.404;2022-08-26T00:40:06;8.32;;;6.40;;
16766;SDS011;8501;49.926;8.404;2022-08-26T00:42:35;8.10;;;6.53;;
16766;SDS011;8501;49.926;8.404;2022-08-26T00:45:01;7.88;;;6.63;;
16766;SDS011;8501;49.926;8.404;2022-08-26T00:47:34;7.53;;;6.38;;
16766;SDS011;8501;49.926;8.404;2022-08-26T00:50:05;7.95;;;6.40;;
16766;SDS011;8501;49.926;8.404;2022-08-26T00:52:34;7.82;;;6.57;;
16766;SDS011;8501;49.926;8.404;2022-08-26T00:55:12;7.80;;;6.40;;
16766;SDS011;8501;49.926;8.404;2022-08-26T00:57:42;7.22;;;6.40;;
16766;SDS011;8501;49.926;8.404;2022-08-26T01:00:12;9.27;;;6.45;;
16766;SDS011;8501;49.926;8.404;2022-08-26T01:02:41;7.55;;;6.25;;
16766;SDS011;8501;49.926;8.404;2022-08-26T01:05:08;8.20;;;6.45;;
16766;SDS011;8501;49.926;8.404;2022-08-26T01:07:35;10.27;;;6.82;;
16766;SDS011;8501;49.926;8.404;2022-08-26T01:12:40;9.02;;;6.53;;
16766;SDS011;8501;49.926;8.404;2022-08-26T01:15:10;9.98;;;6.70;;
16766;SDS011;8501;49.926;8.404;2022-08-26T01:17:39;7.90;;;6.25;;
16766;SDS011;8501;49.926;8.404;2022-08-26T01:25:19;9.68;;;6.55;;
16766;SDS011;8501;49.926;8.404;2022-08-26T01:27:46;7.00;;;6.13;;
16766;SDS011;8501;49.926;8.404;2022-08-26T01:30:12;9.77;;;6.35;;
16766;SDS011;8501;49.926;8.404;2022-08-26T01:32:38;8.23;;;6.18;;
16766;SDS011;8501;49.926;8.404;2022-08-26T01:35:05;8.52;;;6.55;;
16766;SDS011;8501;49.926;8.404;2022-08-26T01:37:32;8.90;;;6.22;;
16766;SDS011;8501;49.926;8.404;2022-08-26T01:40:01;7.55;;;6.10;;
16766;SDS011;8501;49.926;8.404;2022-08-26T01:42:28;7.38;;;6.20;;
16766;SDS011;8501;49.926;8.404;2022-08-26T01:45:04;9.02;;;6.47;;
16766;SDS011;8501;49.926;8.404;2022-08-26T01:47:30;7.43;;;6.10;;
16766;SDS011;8501;49.926;8.404;2022-08-26T01:50:04;9.20;;;6.35;;
16766;SDS011;8501;49.926;8.404;2022-08-26T01:52:27;10.02;;;6.38;;
16766;SDS011;8501;49.926;8.404;2022-08-26T01:54:57;9.85;;;6.72;;
16766;SDS011;8501;49.926;8.404;2022-08-26T01:57:26;8.73;;;6.47;;
16766;SDS011;8501;49.926;8.404;2022-08-26T01:59:53;10.13;;;6.78;;
16766;SDS011;8501;49.926;8.404;2022-08-26T02:02:22;10.35;;;6.80;;
16766;SDS011;8501;49.926;8.404;2022-08-26T02:04:49;8.73;;;6.50;;
16766;SDS011;8501;49.926;8.404;2022-08-26T02:07:20;9.23;;;6.82;;
16766;SDS011;8501;49.926;8.404;2022-08-26T02:09:47;8.35;;;6.40;;
16766;SDS011;8501;49.926;8.404;2022-08-26T02:12:13;7.63;;;6.35;;
16766;SDS011;8501;49.926;8.404;2022-08-26T02:14:43;10.90;;;6.72;;
16766;SDS011;8501;49.926;8.404;2022-08-26T02:17:14;9.60;;;6.68;;
16766;SDS011;8501;49.926;8.404;2022-08-26T02:19:44;8.10;;;6.53;;
16766;SDS011;8501;49.926;8.404;2022-08-26T02:22:12;7.97;;;6.25;;
16766;SDS011;8501;49.926;8.404;2022-08-26T02:24:49;8.20;;;6.65;;
16766;SDS011;8501;49.926;8.404;2022-08-26T02:27:30;8.45;;;6.90;;
16766;SDS011;8501;49.926;8.404;2022-08-26T02:29:58;9.38;;;6.90;;
16766;SDS011;8501;49.926;8.404;2022-08-26T02:32:30;8.70;;;6.70;;
16766;SDS011;8501;49.926;8.404;2022-08-26T02:34:56;8.15;;;6.53;;
16766;SDS011;8501;49.926;8.404;2022-08-26T02:37:22;9.50;;;6.95;;
16766;SDS011;8501;49.926;8.404;2022-08-26T02:39:51;9.30;;;6.63;;
16766;SDS011;8501;49.926;8.404;2022-08-26T02:42:17;8.15;;;6.53;;
16766;SDS011;8501;49.926;8.404;2022-08-26T02:44:42;9.80;;;7.07;;
16766;SDS011;8501;49.926;8.404;2022-08-26T02:47:08;8.40;;;6.75;;
16766;SDS011;8501;49.926;8.404;2022-08-26T02:49:33;8.90;;;6.93;;
16766;SDS011;8501;49.926;8.404;2022-08-26T02:52:00;10.65;;;7.07;;
16766;SDS011;8501;49.926;8.404;2022-08-26T02:54:26;9.57;;;6.70;;
16766;SDS011;8501;49.926;8.404;2022-08-26T02:56:51;13.45;;;7.63;;
16766;SDS011;8501;49.926;8.404;2022-08-26T02:59:17;11.40;;;7.28;;
16766;SDS011;8501;49.926;8.404;2022-08-26T03:01:43;10.63;;;7.43;;
16766;SDS011;8501;49.926;8.404;2022-08-26T03:04:09;10.20;;;7.22;;
16766;SDS011;8501;49.926;8.404;2022-08-26T03:06:36;10.65;;;7.25;;
16766;SDS011;8501;49.926;8.404;2022-08-26T03:09:03;12.50;;;7.97;;
16766;SDS011;8501;49.926;8.404;2022-08-26T03:11:29;7.72;;;6.93;;
16766;SDS011;8501;49.926;8.404;2022-08-26T03:13:56;9.90;;;7.20;;
16766;SDS011;8501;49.926;8.404;2022-08-26T03:16:22;10.65;;;7.70;;
16766;SDS011;8501;49.926;8.404;2022-08-26T03:18:48;9.50;;;6.78;;
16766;SDS011;8501;49.926;8.404;2022-08-26T03:21:14;8.80;;;6.45;;
16766;SDS011;8501;49.926;8.404;2022-08-26T03:23:41;9.23;;;7.18;;
16766;SDS011;8501;49.926;8.404;2022-08-26T03:26:09;8.93;;;7.25;;
16766;SDS011;8501;49.926;8.404;2022-08-26T03:28:36;8.30;;;6.55;;
16766;SDS011;8501;49.926;8.404;2022-08-26T03:31:25;9.50;;;7.22;;
16766;SDS011;8501;49.926;8.404;2022-08-26T03:33:51;10.88;;;7.18;;
16766;SDS011;8501;49.926;8.404;2022-08-26T03:36:17;8.93;;;6.80;;
16766;SDS011;8501;49.926;8.404;2022-08-26T03:38:43;8.10;;;6.88;;
16766;SDS011;8501;49.926;8.404;2022-08-26T03:41:08;8.88;;;6.93;;
16766;SDS011;8501;49.926;8.404;2022-08-26T03:43:36;8.50;;;6.93;;
16766;SDS011;8501;49.926;8.404;2022-08-26T03:46:06;10.13;;;7.00;;
16766;SDS011;8501;49.926;8.404;2022-08-26T03:48:33;7.95;;;6.60;;
16766;SDS011;8501;49.926;8.404;2022-08-26T03:50:59;9.82;;;6.82;;
16766;SDS011;8501;49.926;8.404;2022-08-26T03:53:25;8.95;;;6.40;;
16766;SDS011;8501;49.926;8.404;2022-08-26T03:55:51;10.38;;;6.28;;
16766;SDS011;8501;49.926;8.404;2022-08-26T03:58:17;8.25;;;6.65;;
16766;SDS011;8501;49.926;8.404;2022-08-26T04:00:43;8.40;;;6.70;;
16766;SDS011;8501;49.926;8.404;2022-08-26T04:03:08;10.90;;;7.43;;
16766;SDS011;8501;49.926;8.404;2022-08-26T04:05:35;9.50;;;6.45;;
16766;SDS011;8501;49.926;8.404;2022-08-26T04:10:35;7.93;;;6.43;;
16766;SDS011;8501;49.926;8.404;2022-08-26T04:13:02;8.13;;;6.45;;
16766;SDS011;8501;49.926;8.404;2022-08-26T04:15:27;8.70;;;6.70;;
16766;SDS011;8501;49.926;8.404;2022-08-26T04:17:53;10.38;;;6.80;;
16766;SDS011;8501;49.926;8.404;2022-08-26T04:20:19;8.57;;;6.50;;
16766;SDS011;8501;49.926;8.404;2022-08-26T04:22:44;13.18;;;7.03;;
16766;SDS011;8501;49.926;8.404;2022-08-26T04:25:10;7.53;;;6.40;;
16766;SDS011;8501;49.926;8.404;2022-08-26T04:27:36;11.70;;;6.93;;
16766;SDS011;8501;49.926;8.404;2022-08-26T04:30:03;10.60;;;6.85;;
16766;SDS011;8501;49.926;8.404;2022-08-26T04:32:29;13.57;;;7.38;;
16766;SDS011;8501;49.926;8.404;2022-08-26T04:34:54;14.45;;;8.30;;
16766;SDS011;8501;49.926;8.404;2022-08-26T04:37:20;16.75;;;8.35;;
16766;SDS011;8501;49.926;8.404;2022-08-26T04:39:49;17.05;;;8.00;;
16766;SDS011;8501;49.926;8.404;2022-08-26T04:42:19;12.90;;;8.30;;
16766;SDS011;8501;49.926;8.404;2022-08-26T04:47:14;14.20;;;8.07;;
16766;SDS011;8501;49.926;8.404;2022-08-26T04:49:39;11.75;;;8.02;;
16766;SDS011;8501;49.926;8.404;2022-08-26T04:52:05;11.85;;;8.25;;
16766;SDS011;8501;49.926;8.404;2022-08-26T04:54:30;10.38;;;7.95;;
16766;SDS011;8501;49.926;8.404;2022-08-26T04:59:26;11.88;;;8.57;;
16766;SDS011;8501;49.926;8.404;2022-08-26T05:01:52;12.63;;;8.00;;
16766;SDS011;8501;49.926;8.404;2022-08-26T05:04:23;11.00;;;8.38;;
16766;SDS011;8501;49.926;8.404;2022-08-26T05:06:49;11.88;;;7.85;;
16766;SDS011;8501;49.926;8.404;2022-08-26T05:09:15;11.77;;;8.18;;
16766;SDS011;8501;49.926;8.404;2022-08-26T05:11:42;11.43;;;8.20;;
16766;SDS011;8501;49.926;8.404;2022-08-26T05:14:09;11.70;;;8.35;;
16766;SDS011;8501;49.926;8.404;2022-08-26T05:16:35;14.57;;;7.68;;
16766;SDS011;8501;49.926;8.404;2022-08-26T05:19:02;10.10;;;8.00;;
16766;SDS011;8501;49.926;8.404;2022-08-26T05:21:28;11.65;;;7.63;;
16766;SDS011;8501;49.926;8.404;2022-08-26T05:23:54;10.88;;;7.95;;
16766;SDS011;8501;49.926;8.404;2022-08-26T05:26:21;13.15;;;7.85;;
16766;SDS011;8501;49.926;8.404;2022-08-26T05:28:49;10.88;;;8.00;;
16766;SDS011;8501;49.926;8.404;2022-08-26T05:31:16;11.73;;;7.88;;
16766;SDS011;8501;49.926;8.404;2022-08-26T05:33:43;9.95;;;7.32;;
16766;SDS011;8501;49.926;8.404;2022-08-26T05:36:11;9.50;;;7.30;;
16766;SDS011;8501;49.926;8.404;2022-08-26T05:38:39;10.55;;;7.60;;
16766;SDS011;8501;49.926;8.404;2022-08-26T05:43:35;9.27;;;7.40;;
16766;SDS011;8501;49.926;8.404;2022-08-26T05:46:04;10.60;;;7.93;;
16766;SDS011;8501;49.926;8.404;2022-08-26T05:48:30;10.18;;;7.93;;
16766;SDS011;8501;49.926;8.404;2022-08-26T05:50:56;11.48;;;7.18;;
16766;SDS011;8501;49.926;8.404;2022-08-26T05:53:27;10.50;;;7.50;;
16766;SDS011;8501;49.926;8.404;2022-08-26T05:55:53;9.70;;;7.63;;
16766;SDS011;8501;49.926;8.404;2022-08-26T05:58:20;8.80;;;6.97;;
16766;SDS011;8501;49.926;8.404;2022-08-26T06:01:08;10.60;;;7.43;;
16766;SDS011;8501;49.926;8.404;2022-08-26T06:03:38;8.38;;;7.30;;
16766;SDS011;8501;49.926;8.404;2022-08-26T06:06:08;12.77;;;7.43;;
16766;SDS011;8501;49.926;8.404;2022-08-26T06:08:37;10.75;;;7.50;;
16766;SDS011;8501;49.926;8.404;2022-08-26T06:11:04;11.10;;;7.07;;
16766;SDS011;8501;49.926;8.404;2022-08-26T06:13:32;12.32;;;7.75;;
16766;SDS011;8501;49.926;8.404;2022-08-26T06:15:58;9.85;;;7.38;;
16766;SDS011;8501;49.926;8.404;2022-08-26T06:18:28;10.63;;;7.75;;
16766;SDS011;8501;49.926;8.404;2022-08-26T06:20:57;9.52;;;7.15;;
16766;SDS011;8501;49.926;8.404;2022-08-26T06:23:23;11.15;;;7.90;;
16766;SDS011;8501;49.926;8.404;2022-08-26T06:26:09;8.80;;;7.28;;
16766;SDS011;8501;49.926;8.404;2022-08-26T06:28:35;9.15;;;7.90;;
16766;SDS011;8501;49.926;8.404;2022-08-26T06:31:01;10.85;;;7.22;;
16766;SDS011;8501;49.926;8.404;2022-08-26T06:33:27;12.15;;;8.13;;
16766;SDS011;8501;49.926;8.404;2022-08-26T06:35:53;9.18;;;7.65;;
16766;SDS011;8501;49.926;8.404;2022-08-26T06:38:19;9.43;;;8.05;;
16766;SDS011;8501;49.926;8.404;2022-08-26T06:40:46;13.15;;;9.02;;
16766;SDS011;8501;49.926;8.404;2022-08-26T06:43:14;10.27;;;8.48;;
16766;SDS011;8501;49.926;8.404;2022-08-26T06:45:43;10.45;;;8.48;;
16766;SDS011;8501;49.926;8.404;2022-08-26T06:48:09;10.63;;;8.80;;
16766;SDS011;8501;49.926;8.404;2022-08-26T06:50:36;11.80;;;9.02;;
16766;SDS011;8501;49.926;8.404;2022-08-26T06:53:01;11.10;;;8.45;;
16766;SDS011;8501;49.926;8.404;2022-08-26T06:55:27;10.88;;;8.55;;
16766;SDS011;8501;49.926;8.404;2022-08-26T06:57:53;11.05;;;8.73;;
16766;SDS011;8501;49.926;8.404;2022-08-26T07:00:18;12.43;;;8.85;;
16766;SDS011;8501;49.926;8.404;2022-08-26T07:02:45;11.38;;;8.63;;
16766;SDS011;8501;49.926;8.404;2022-08-26T07:05:10;10.75;;;8.88;;
16766;SDS011;8501;49.926;8.404;2022-08-26T07:07:39;9.77;;;8.30;;
16766;SDS011;8501;49.926;8.404;2022-08-26T07:10:05;9.88;;;8.10;;
16766;SDS011;8501;49.926;8.404;2022-08-26T07:12:33;13.82;;;8.75;;
16766;SDS011;8501;49.926;8.404;2022-08-26T07:14:59;11.45;;;8.65;;
16766;SDS011;8501;49.926;8.404;2022-08-26T07:17:25;11.40;;;9.07;;
16766;SDS011;8501;49.926;8.404;2022-08-26T07:19:51;14.30;;;8.75;;
16766;SDS011;8501;49.926;8.404;2022-08-26T07:22:17;13.30;;;8.65;;
16766;SDS011;8501;49.926;8.404;2022-08-26T07:24:43;11.63;;;9.05;;
16766;SDS011;8501;49.926;8.404;2022-08-26T07:27:10;12.07;;;9.00;;
16766;SDS011;8501;49.926;8.404;2022-08-26T07:29:37;12.60;;;9.25;;
16766;SDS011;8501;49.926;8.404;2022-08-26T07:32:05;12.38;;;8.85;;
16766;SDS011;8501;49.926;8.404;2022-08-26T07:34:31;11.73;;;9.50;;
16766;SDS011;8501;49.926;8.404;2022-08-26T07:36:57;13.98;;;9.43;;
16766;SDS011;8501;49.926;8.404;2022-08-26T07:39:23;10.60;;;8.93;;
16766;SDS011;8501;49.926;8.404;2022-08-26T07:41:50;12.15;;;9.20;;
16766;SDS011;8501;49.926;8.404;2022-08-26T07:44:16;12.35;;;9.23;;
16766;SDS011;8501;49.926;8.404;2022-08-26T07:46:42;10.70;;;9.23;;
16766;SDS011;8501;49.926;8.404;2022-08-26T07:49:08;13.48;;;9.50;;
16766;SDS011;8501;49.926;8.404;2022-08-26T07:51:34;12.95;;;9.07;;
16766;SDS011;8501;49.926;8.404;2022-08-26T07:54:01;12.05;;;9.05;;
16766;SDS011;8501;49.926;8.404;2022-08-26T07:56:26;11.35;;;9.00;;
16766;SDS011;8501;49.926;8.404;2022-08-26T07:58:52;13.68;;;8.80;;
16766;SDS011;8501;49.926;8.404;2022-08-26T08:01:18;11.88;;;9.05;;
16766;SDS011;8501;49.926;8.404;2022-08-26T08:03:45;10.35;;;9.00;;
16766;SDS011;8501;49.926;8.404;2022-08-26T08:06:12;10.30;;;8.98;;
16766;SDS011;8501;49.926;8.404;2022-08-26T08:08:37;9.65;;;8.65;;
16766;SDS011;8501;49.926;8.404;2022-08-26T08:11:05;14.93;;;8.52;;
16766;SDS011;8501;49.926;8.404;2022-08-26T08:13:30;10.60;;;8.63;;
16766;SDS011;8501;49.926;8.404;2022-08-26T08:15:56;12.38;;;8.73;;
16766;SDS011;8501;49.926;8.404;2022-08-26T08:18:21;11.05;;;8.27;;
16766;SDS011;8501;49.926;8.404;2022-08-26T08:20:47;10.10;;;7.93;;
16766;SDS011;8501;49.926;8.404;2022-08-26T08:23:14;15.05;;;8.88;;
16766;SDS011;8501;49.926;8.404;2022-08-26T08:25:40;11.48;;;8.57;;
16766;SDS011;8501;49.926;8.404;2022-08-26T08:28:05;9.43;;;8.00;;
16766;SDS011;8501;49.926;8.404;2022-08-26T08:30:31;12.48;;;8.85;;
16766;SDS011;8501;49.926;8.404;2022-08-26T08:32:56;11.77;;;7.65;;
16766;SDS011;8501;49.926;8.404;2022-08-26T08:35:22;10.38;;;8.48;;
16766;SDS011;8501;49.926;8.404;2022-08-26T08:37:50;11.43;;;8.30;;
16766;SDS011;8501;49.926;8.404;2022-08-26T08:40:22;10.10;;;8.05;;
16766;SDS011;8501;49.926;8.404;2022-08-26T08:45:37;11.32;;;9.05;;
16766;SDS011;8501;49.926;8.404;2022-08-26T08:48:15;12.18;;;9.70;;
16766;SDS011;8501;49.926;8.404;2022-08-26T08:50:50;12.20;;;10.02;;
16766;SDS011;8501;49.926;8.404;2022-08-26T08:53:38;10.65;;;9.55;;
16766;SDS011;8501;49.926;8.404;2022-08-26T09:01:58;12.68;;;10.40;;
16766;SDS011;8501;49.926;8.404;2022-08-26T09:07:30;15.02;;;10.52;;
16766;SDS011;8501;49.926;8.404;2022-08-26T09:10:09;12.60;;;9.25;;
16766;SDS011;8501;49.926;8.404;2022-08-26T09:12:42;13.40;;;8.77;;
16766;SDS011;8501;49.926;8.404;2022-08-26T09:15:12;15.10;;;8.70;;
16766;SDS011;8501;49.926;8.404;2022-08-26T09:23:25;14.35;;;8.63;;
16766;SDS011;8501;49.926;8.404;2022-08-26T09:26:01;15.35;;;8.07;;
16766;SDS011;8501;49.926;8.404;2022-08-26T09:28:37;17.20;;;8.00;;
16766;SDS011;8501;49.926;8.404;2022-08-26T09:31:11;13.32;;;8.40;;
16766;SDS011;8501;49.926;8.404;2022-08-26T09:33:48;17.98;;;8.45;;
16766;SDS011;8501;49.926;8.404;2022-08-26T09:36:38;16.58;;;8.57;;
16766;SDS011;8501;49.926;8.404;2022-08-26T09:42:14;14.80;;;8.52;;
16766;SDS011;8501;49.926;8.404;2022-08-26T09:47:25;13.10;;;8.38;;
16766;SDS011;8501;49.926;8.404;2022-08-26T09:50:36;11.18;;;8.18;;
16766;SDS011;8501;49.926;8.404;2022-08-26T09:52:47;10.63;;;8.30;;
16766;SDS011;8501;49.926;8.404;2022-08-26T09:55:37;13.60;;;8.32;;
16766;SDS011;8501;49.926;8.404;2022-08-26T09:58:05;13.55;;;8.30;;
16766;SDS011;8501;49.926;8.404;2022-08-26T10:00:34;13.48;;;8.38;;
16766;SDS011;8501;49.926;8.404;2022-08-26T10:03:03;17.58;;;8.80;;
16766;SDS011;8501;49.926;8.404;2022-08-26T10:10:41;13.15;;;8.25;;
16766;SDS011;8501;49.926;8.404;2022-08-26T10:13:22;12.48;;;8.70;;
16766;SDS011;8501;49.926;8.404;2022-08-26T10:18:52;11.68;;;8.15;;
16766;SDS011;8501;49.926;8.404;2022-08-26T10:24:22;13.30;;;8.88;;
16766;SDS011;8501;49.926;8.404;2022-08-26T10:27:09;14.50;;;8.35;;
16766;SDS011;8501;49.926;8.404;2022-08-26T10:29:55;14.20;;;8.60;;
16766;SDS011;8501;49.926;8.404;2022-08-26T10:32:38;12.10;;;8.60;;
16766;SDS011;8501;49.926;8.404;2022-08-26T10:35:20;9.73;;;8.25;;
16766;SDS011;8501;49.926;8.404;2022-08-26T10:37:47;13.38;;;8.75;;
16766;SDS011;8501;49.926;8.404;2022-08-26T10:40:24;13.05;;;8.38;;
16766;SDS011;8501;49.926;8.404;2022-08-26T10:45:49;12.85;;;8.77;;
16766;SDS011;8501;49.926;8.404;2022-08-26T10:48:26;12.68;;;8.73;;
16766;SDS011;8501;49.926;8.404;2022-08-26T10:50:57;15.60;;;9.27;;
16766;SDS011;8501;49.926;8.404;2022-08-26T10:53:29;15.57;;;9.07;;
16766;SDS011;8501;49.926;8.404;2022-08-26T10:56:24;19.42;;;9.85;;
16766;SDS011;8501;49.926;8.404;2022-08-26T10:59:05;13.35;;;9.45;;
16766;SDS011;8501;49.926;8.404;2022-08-26T11:01:42;12.88;;;9.20;;
16766;SDS011;8501;49.926;8.404;2022-08-26T11:18:01;15.93;;;10.48;;
16766;SDS011;8501;49.926;8.404;2022-08-26T11:28:31;19.13;;;13.95;;
16766;SDS011;8501;49.926;8.404;2022-08-26T11:31:40;17.27;;;13.38;;
16766;SDS011;8501;49.926;8.404;2022-08-26T11:34:03;15.60;;;12.65;;
16766;SDS011;8501;49.926;8.404;2022-08-26T11:41:53;17.73;;;14.00;;
16766;SDS011;8501;49.926;8.404;2022-08-26T11:44:20;18.25;;;14.82;;
16766;SDS011;8501;49.926;8.404;2022-08-26T11:46:55;24.02;;;18.23;;
16766;SDS011;8501;49.926;8.404;2022-08-26T11:49:22;22.73;;;18.02;;
16766;SDS011;8501;49.926;8.404;2022-08-26T11:51:48;19.60;;;16.33;;
16766;SDS011;8501;49.926;8.404;2022-08-26T11:54:15;20.30;;;16.17;;
16766;SDS011;8501;49.926;8.404;2022-08-26T11:56:47;20.75;;;15.80;;
16766;SDS011;8501;49.926;8.404;2022-08-26T11:59:21;19.20;;;14.55;;
16766;SDS011;8501;49.926;8.404;2022-08-26T12:01:51;18.40;;;15.60;;
16766;SDS011;8501;49.926;8.404;2022-08-26T12:04:28;19.05;;;16.38;;
16766;SDS011;8501;49.926;8.404;2022-08-26T12:07:00;18.63;;;15.75;;
16766;SDS011;8501;49.926;8.404;2022-08-26T12:09:29;19.08;;;16.00;;
16766;SDS011;8501;49.926;8.404;2022-08-26T12:12:10;19.77;;;15.93;;
16766;SDS011;8501;49.926;8.404;2022-08-26T12:15:11;17.90;;;14.88;;
16766;SDS011;8501;49.926;8.404;2022-08-26T12:17:40;20.75;;;16.13;;
16766;SDS011;8501;49.926;8.404;2022-08-26T12:20:16;19.65;;;16.65;;
16766;SDS011;8501;49.926;8.404;2022-08-26T12:22:42;20.60;;;17.05;;
16766;SDS011;8501;49.926;8.404;2022-08-26T12:25:09;19.67;;;15.73;;
16766;SDS011;8501;49.926;8.404;2022-08-26T12:27:36;16.73;;;13.38;;
16766;SDS011;8501;49.926;8.404;2022-08-26T12:33:23;14.50;;;12.75;;
16766;SDS011;8501;49.926;8.404;2022-08-26T12:35:29;16.17;;;12.52;;
16766;SDS011;8501;49.926;8.404;2022-08-26T12:37:55;16.80;;;12.85;;
16766;SDS011;8501;49.926;8.404;2022-08-26T12:43:04;17.63;;;14.05;;
16766;SDS011;8501;49.926;8.404;2022-08-26T12:45:34;16.00;;;12.48;;
16766;SDS011;8501;49.926;8.404;2022-08-26T12:48:01;13.35;;;11.63;;
16766;SDS011;8501;49.926;8.404;2022-08-26T12:50:46;15.73;;;12.05;;
16766;SDS011;8501;49.926;8.404;2022-08-26T12:53:25;16.33;;;12.25;;
16766;SDS011;8501;49.926;8.404;2022-08-26T12:55:53;14.63;;;11.90;;
16766;SDS011;8501;49.926;8.404;2022-08-26T13:00:53;14.40;;;11.68;;
16766;SDS011;8501;49.926;8.404;2022-08-26T13:03:43;15.40;;;12.30;;
16766;SDS011;8501;49.926;8.404;2022-08-26T13:14:06;14.43;;;12.73;;
16766;SDS011;8501;49.926;8.404;2022-08-26T13:16:34;12.73;;;10.77;;
16766;SDS011;8501;49.926;8.404;2022-08-26T13:19:02;12.18;;;10.23;;
16766;SDS011;8501;49.926;8.404;2022-08-26T13:21:30;13.15;;;10.20;;
16766;SDS011;8501;49.926;8.404;2022-08-26T13:24:08;11.23;;;9.43;;
16766;SDS011;8501;49.926;8.404;2022-08-26T13:26:42;22.25;;;16.88;;
16766;SDS011;8501;49.926;8.404;2022-08-26T13:29:09;26.58;;;18.73;;
16766;SDS011;8501;49.926;8.404;2022-08-26T13:31:35;23.13;;;18.50;;
16766;SDS011;8501;49.926;8.404;2022-08-26T13:34:03;23.95;;;18.67;;
16766;SDS011;8501;49.926;8.404;2022-08-26T13:36:29;20.00;;;15.77;;
16766;SDS011;8501;49.926;8.404;2022-08-26T13:38:55;23.25;;;15.35;;
16766;SDS011;8501;49.926;8.404;2022-08-26T13:41:21;19.40;;;15.75;;
16766;SDS011;8501;49.926;8.404;2022-08-26T13:43:46;18.63;;;16.02;;
16766;SDS011;8501;49.926;8.404;2022-08-26T13:48:45;18.88;;;14.13;;
16766;SDS011;8501;49.926;8.404;2022-08-26T13:51:13;18.65;;;13.15;;
16766;SDS011;8501;49.926;8.404;2022-08-26T13:53:40;17.45;;;12.38;;
16766;SDS011;8501;49.926;8.404;2022-08-26T13:56:06;15.50;;;11.93;;
16766;SDS011;8501;49.926;8.404;2022-08-26T13:58:31;19.38;;;14.00;;
16766;SDS011;8501;49.926;8.404;2022-08-26T14:00:57;21.05;;;15.38;;
16766;SDS011;8501;49.926;8.404;2022-08-26T14:03:23;19.85;;;15.07;;
16766;SDS011;8501;49.926;8.404;2022-08-26T14:05:49;19.80;;;15.23;;
16766;SDS011;8501;49.926;8.404;2022-08-26T14:08:17;17.90;;;15.18;;
16766;SDS011;8501;49.926;8.404;2022-08-26T14:10:43;18.48;;;14.85;;
16766;SDS011;8501;49.926;8.404;2022-08-26T14:13:08;21.38;;;17.05;;
16766;SDS011;8501;49.926;8.404;2022-08-26T14:15:34;20.08;;;16.65;;
16766;SDS011;8501;49.926;8.404;2022-08-26T14:18:02;21.20;;;18.25;;
16766;SDS011;8501;49.926;8.404;2022-08-26T14:20:29;23.17;;;18.92;;
16766;SDS011;8501;49.926;8.404;2022-08-26T14:25:28;24.80;;;19.75;;
16766;SDS011;8501;49.926;8.404;2022-08-26T14:28:01;23.70;;;20.08;;
16766;SDS011;8501;49.926;8.404;2022-08-26T14:30:26;23.10;;;18.88;;
16766;SDS011;8501;49.926;8.404;2022-08-26T14:32:54;25.98;;;20.77;;
16766;SDS011;8501;49.926;8.404;2022-08-26T14:35:22;24.83;;;20.65;;
16766;SDS011;8501;49.926;8.404;2022-08-26T14:37:51;24.33;;;20.25;;
16766;SDS011;8501;49.926;8.404;2022-08-26T14:40:17;25.15;;;19.88;;
16766;SDS011;8501;49.926;8.404;2022-08-26T14:42:46;22.80;;;19.52;;
16766;SDS011;8501;49.926;8.404;2022-08-26T14:45:14;24.55;;;19.48;;
16766;SDS011;8501;49.926;8.404;2022-08-26T14:47:42;23.92;;;19.52;;
16766;SDS011;8501;49.926;8.404;2022-08-26T14:50:09;21.20;;;18.83;;
16766;SDS011;8501;49.926;8.404;2022-08-26T14:52:36;22.15;;;19.77;;
16766;SDS011;8501;49.926;8.404;2022-08-26T14:55:21;26.20;;;20.27;;
16766;SDS011;8501;49.926;8.404;2022-08-26T14:57:47;26.90;;;19.88;;
16766;SDS011;8501;49.926;8.404;2022-08-26T15:00:12;24.73;;;20.05;;
16766;SDS011;8501;49.926;8.404;2022-08-26T15:02:40;29.20;;;20.67;;
16766;SDS011;8501;49.926;8.404;2022-08-26T15:05:15;23.08;;;20.55;;
16766;SDS011;8501;49.926;8.404;2022-08-26T15:07:41;24.00;;;20.10;;
16766;SDS011;8501;49.926;8.404;2022-08-26T15:10:08;24.33;;;19.75;;
16766;SDS011;8501;49.926;8.404;2022-08-26T15:12:36;22.02;;;19.60;;
16766;SDS011;8501;49.926;8.404;2022-08-26T15:15:02;26.20;;;20.48;;
16766;SDS011;8501;49.926;8.404;2022-08-26T15:17:29;24.38;;;20.42;;
16766;SDS011;8501;49.926;8.404;2022-08-26T15:19:55;25.83;;;20.85;;
16766;SDS011;8501;49.926;8.404;2022-08-26T15:22:20;28.52;;;21.52;;
16766;SDS011;8501;49.926;8.404;2022-08-26T15:24:46;27.02;;;20.25;;
16766;SDS011;8501;49.926;8.404;2022-08-26T15:27:12;27.42;;;21.23;;
16766;SDS011;8501;49.926;8.404;2022-08-26T15:29:38;23.13;;;20.02;;
16766;SDS011;8501;49.926;8.404;2022-08-26T15:32:03;23.75;;;20.45;;
16766;SDS011;8501;49.926;8.404;2022-08-26T15:34:29;22.65;;;20.00;;
16766;SDS011;8501;49.926;8.404;2022-08-26T15:36:55;22.05;;;19.75;;
16766;SDS011;8501;49.926;8.404;2022-08-26T15:39:21;23.15;;;19.80;;
16766;SDS011;8501;49.926;8.404;2022-08-26T15:41:47;23.65;;;18.90;;
16766;SDS011;8501;49.926;8.404;2022-08-26T15:44:13;22.27;;;19.80;;
16766;SDS011;8501;49.926;8.404;2022-08-26T15:46:42;23.85;;;18.35;;
16766;SDS011;8501;49.926;8.404;2022-08-26T15:49:08;20.73;;;18.33;;
16766;SDS011;8501;49.926;8.404;2022-08-26T15:51:35;20.65;;;18.15;;
16766;SDS011;8501;49.926;8.404;2022-08-26T15:54:04;20.90;;;17.83;;
16766;SDS011;8501;49.926;8.404;2022-08-26T15:56:33;20.52;;;17.63;;
16766;SDS011;8501;49.926;8.404;2022-08-26T15:59:00;20.65;;;16.42;;
16766;SDS011;8501;49.926;8.404;2022-08-26T16:01:28;20.65;;;16.38;;
16766;SDS011;8501;49.926;8.404;2022-08-26T16:03:55;17.50;;;15.63;;
16766;SDS011;8501;49.926;8.404;2022-08-26T16:06:23;20.77;;;15.27;;
16766;SDS011;8501;49.926;8.404;2022-08-26T16:08:51;18.73;;;15.88;;
16766;SDS011;8501;49.926;8.404;2022-08-26T16:11:17;18.15;;;14.93;;
16766;SDS011;8501;49.926;8.404;2022-08-26T16:13:43;16.42;;;14.75;;
16766;SDS011;8501;49.926;8.404;2022-08-26T16:16:10;17.98;;;14.63;;
16766;SDS011;8501;49.926;8.404;2022-08-26T16:18:36;14.75;;;13.15;;
16766;SDS011;8501;49.926;8.404;2022-08-26T16:21:01;15.80;;;13.13;;
16766;SDS011;8501;49.926;8.404;2022-08-26T16:23:27;13.63;;;12.27;;
16766;SDS011;8501;49.926;8.404;2022-08-26T16:25:53;14.35;;;12.80;;
16766;SDS011;8501;49.926;8.404;2022-08-26T16:28:19;14.45;;;12.40;;
16766;SDS011;8501;49.926;8.404;2022-08-26T16:30:45;13.90;;;12.38;;
16766;SDS011;8501;49.926;8.404;2022-08-26T16:33:11;14.00;;;12.20;;
16766;SDS011;8501;49.926;8.404;2022-08-26T16:35:39;13.90;;;12.38;;
16766;SDS011;8501;49.926;8.404;2022-08-26T16:38:04;13.45;;;11.77;;
16766;SDS011;8501;49.926;8.404;2022-08-26T16:40:31;14.40;;;12.95;;